createdAt,value
2023-04-20T00:00:47.603Z,5.40
2023-04-20T00:03:15.610Z,5.20
2023-04-20T00:05:43.566Z,5.97
2023-04-20T00:08:11.275Z,5.37
2023-04-20T00:10:39.119Z,5.20
2023-04-20T00:13:06.824Z,4.87
2023-04-20T00:15:35.021Z,5.20
2023-04-20T00:18:05.026Z,5.00
2023-04-20T00:20:33.836Z,5.60
2023-04-20T00:23:04.897Z,4.93
2023-04-20T00:25:34.383Z,4.33
2023-04-20T00:28:03.548Z,5.10
2023-04-20T00:30:31.898Z,4.77
2023-04-20T00:32:59.662Z,4.33
2023-04-20T00:35:28.794Z,4.03
2023-04-20T00:37:56.504Z,5.53
2023-04-20T00:40:24.186Z,4.30
2023-04-20T00:42:51.943Z,3.70
2023-04-20T00:45:22.029Z,4.50
2023-04-20T00:47:50.023Z,4.03
2023-04-20T00:50:18.780Z,3.80
2023-04-20T00:52:48.572Z,4.93
2023-04-20T00:55:16.314Z,4.90
2023-04-20T00:57:44.975Z,4.27
2023-04-20T01:00:13.565Z,4.20
2023-04-20T01:02:41.475Z,4.43
2023-04-20T01:05:10.221Z,5.30
2023-04-20T01:07:37.978Z,4.40
2023-04-20T01:10:08.944Z,4.80
2023-04-20T01:12:37.431Z,5.10
2023-04-20T01:15:07.520Z,5.07
2023-04-20T01:17:36.679Z,5.70
2023-04-20T01:20:04.849Z,5.40
2023-04-20T01:22:33.929Z,5.10
2023-04-20T01:25:01.657Z,5.60
2023-04-20T01:27:29.358Z,5.13
2023-04-20T01:29:57.254Z,5.50
2023-04-20T01:32:24.993Z,5.43
2023-04-20T01:34:52.727Z,5.10
2023-04-20T01:37:20.433Z,5.63
2023-04-20T01:39:49.653Z,5.70
2023-04-20T01:42:17.556Z,6.40
2023-04-20T01:44:45.317Z,6.70
2023-04-20T01:47:13.035Z,6.30
2023-04-20T01:49:40.840Z,5.03
2023-04-20T01:52:08.610Z,6.30
2023-04-20T01:54:37.429Z,6.00
2023-04-20T01:57:06.531Z,7.10
2023-04-20T01:59:34.247Z,7.00
2023-04-20T02:02:02.030Z,6.17
2023-04-20T02:04:29.794Z,7.00
2023-04-20T02:06:57.557Z,6.23
2023-04-20T02:09:25.478Z,6.50
2023-04-20T02:11:53.295Z,6.60
2023-04-20T02:14:22.335Z,6.40
2023-04-20T02:16:50.313Z,7.30
2023-04-20T02:19:18.307Z,6.93
2023-04-20T02:21:46.279Z,6.47
2023-04-20T02:24:14.024Z,6.27
2023-04-20T02:26:41.720Z,6.83
2023-04-20T02:29:09.430Z,6.97
2023-04-20T02:31:38.800Z,5.60
2023-04-20T02:34:09.298Z,5.50
2023-04-20T02:36:37.180Z,6.73
2023-04-20T02:39:05.772Z,7.50
2023-04-20T02:41:33.610Z,8.37
2023-04-20T02:44:01.403Z,8.00
2023-04-20T02:46:29.089Z,8.27
2023-04-20T02:48:58.141Z,7.60
2023-04-20T02:51:25.912Z,8.60
2023-04-20T02:53:53.688Z,7.50
2023-04-20T02:56:21.654Z,7.70
2023-04-20T02:58:51.984Z,8.63
2023-04-20T03:01:19.730Z,8.60
2023-04-20T03:03:47.585Z,9.30
2023-04-20T03:06:16.856Z,8.17
2023-04-20T03:08:44.555Z,8.87
2023-04-20T03:11:12.281Z,8.30
2023-04-20T03:13:39.984Z,10.50
2023-04-20T03:16:08.359Z,9.40
2023-04-20T03:18:36.179Z,9.87
2023-04-20T03:21:03.940Z,8.60
2023-04-20T03:23:33.116Z,8.60
2023-04-20T03:26:01.560Z,8.50
2023-04-20T03:28:29.262Z,7.60
2023-04-20T03:30:56.962Z,8.80
2023-04-20T03:33:24.669Z,8.83
2023-04-20T03:35:52.378Z,8.47
2023-04-20T03:38:21.108Z,7.77
2023-04-20T03:40:50.261Z,8.00
2023-04-20T03:43:17.950Z,7.90
2023-04-20T03:45:45.692Z,8.70
2023-04-20T03:48:13.433Z,6.40
2023-04-20T03:50:41.162Z,7.30
2023-04-20T03:53:08.887Z,7.97
2023-04-20T03:55:36.647Z,7.07
2023-04-20T03:58:06.842Z,6.70
2023-04-20T04:00:34.620Z,7.20
2023-04-20T04:03:02.470Z,6.50
2023-04-20T04:05:30.560Z,6.50
2023-04-20T04:07:58.309Z,6.13
2023-04-20T04:10:26.154Z,6.37
2023-04-20T04:12:54.005Z,7.50
2023-04-20T04:15:23.167Z,7.93
2023-04-20T04:17:50.937Z,7.60
2023-04-20T04:20:18.746Z,8.40
2023-04-20T04:22:46.447Z,8.00
2023-04-20T04:25:15.074Z,7.00
2023-04-20T04:27:43.035Z,8.37
2023-04-20T04:30:12.424Z,9.67
2023-04-20T04:32:41.751Z,8.70
2023-04-20T04:35:11.297Z,7.77
2023-04-20T04:37:38.980Z,8.90
2023-04-20T04:40:08.822Z,10.10
2023-04-20T04:42:37.025Z,10.50
2023-04-20T04:45:05.570Z,10.63
2023-04-20T04:47:35.741Z,8.37
2023-04-20T04:50:05.816Z,9.57
2023-04-20T04:52:34.028Z,9.93
2023-04-20T04:55:02.590Z,9.83
2023-04-20T04:57:30.449Z,10.03
2023-04-20T04:59:58.173Z,10.20
2023-04-20T05:02:26.080Z,9.70
2023-04-20T05:04:54.040Z,10.10
2023-04-20T05:07:24.710Z,9.40
2023-04-20T05:09:52.541Z,7.60
2023-04-20T05:12:20.542Z,5.60
2023-04-20T05:14:48.293Z,5.53
2023-04-20T05:17:16.010Z,6.40
2023-04-20T05:19:43.778Z,5.00
2023-04-20T05:22:11.498Z,6.17
2023-04-20T05:24:40.747Z,5.63
2023-04-20T05:27:20.821Z,6.47
2023-04-20T05:29:48.533Z,6.23
2023-04-20T05:32:16.247Z,6.00
2023-04-20T05:34:43.990Z,5.97
2023-04-20T05:37:11.887Z,5.63
2023-04-20T05:39:43.402Z,7.80
2023-04-20T05:42:11.742Z,7.70
2023-04-20T05:44:41.085Z,7.80
2023-04-20T05:47:08.871Z,7.63
2023-04-20T05:49:36.952Z,9.40
2023-04-20T05:52:04.816Z,7.40
2023-04-20T05:54:32.628Z,8.50
2023-04-20T05:57:01.647Z,10.43
2023-04-20T05:59:29.425Z,9.03
2023-04-20T06:01:57.474Z,9.00
2023-04-20T06:04:25.722Z,10.23
2023-04-20T06:06:53.664Z,10.30
2023-04-20T06:09:21.546Z,9.67
2023-04-20T06:11:49.309Z,9.83
2023-04-20T06:14:18.374Z,10.60
2023-04-20T06:16:46.110Z,10.73
2023-04-20T06:19:13.881Z,11.10
2023-04-20T06:21:41.625Z,9.73
2023-04-20T06:24:09.700Z,10.50
2023-04-20T06:26:37.415Z,8.00
2023-04-20T06:29:05.168Z,9.77
2023-04-20T06:31:34.288Z,9.67
2023-04-20T06:34:02.038Z,9.13
2023-04-20T06:36:30.570Z,8.77
2023-04-20T06:38:58.277Z,8.93
2023-04-20T06:41:25.962Z,9.40
2023-04-20T06:43:53.784Z,9.80
2023-04-20T06:46:21.501Z,8.57
2023-04-20T06:48:50.592Z,9.00
2023-04-20T06:51:18.296Z,8.60
2023-04-20T06:53:46.057Z,7.47
2023-04-20T06:56:13.855Z,6.70
2023-04-20T06:58:41.580Z,7.73
2023-04-20T07:01:09.320Z,7.60
2023-04-20T07:03:38.013Z,7.53
2023-04-20T07:06:10.980Z,7.73
2023-04-20T07:08:40.056Z,9.00
2023-04-20T07:11:07.804Z,8.20
2023-04-20T07:13:35.691Z,9.00
2023-04-20T07:16:03.833Z,8.43
2023-04-20T07:18:33.301Z,9.00
2023-04-20T07:21:02.435Z,8.63
2023-04-20T07:23:31.527Z,8.27
2023-04-20T07:25:59.313Z,8.67
2023-04-20T07:28:27.031Z,9.47
2023-04-20T07:30:54.745Z,8.60
2023-04-20T07:33:24.054Z,9.30
2023-04-20T07:35:51.813Z,8.90
2023-04-20T07:38:19.532Z,9.53
2023-04-20T07:40:48.566Z,9.90
2023-04-20T07:43:16.251Z,9.00
2023-04-20T07:45:43.994Z,7.80
2023-04-20T07:48:12.395Z,7.33
2023-04-20T07:50:40.411Z,7.67
2023-04-20T07:53:08.308Z,7.40
2023-04-20T07:55:36.667Z,8.07
2023-04-20T07:58:06.038Z,8.50
2023-04-20T08:00:33.862Z,8.17
2023-04-20T08:03:01.705Z,8.57
2023-04-20T08:05:29.827Z,7.97
2023-04-20T08:07:59.047Z,7.10
2023-04-20T08:10:26.915Z,8.33
2023-04-20T08:12:54.617Z,8.40
2023-04-20T08:15:23.830Z,8.30
2023-04-20T08:17:52.862Z,7.93
2023-04-20T08:20:20.670Z,8.53
2023-04-20T08:22:49.229Z,8.40
2023-04-20T08:25:17.087Z,7.53
2023-04-20T08:27:44.822Z,6.07
2023-04-20T08:30:13.310Z,5.93
2023-04-20T08:32:42.601Z,5.93
2023-04-20T08:35:10.520Z,5.80
2023-04-20T08:37:38.685Z,5.80
2023-04-20T08:40:07.713Z,4.87
2023-04-20T08:42:35.452Z,5.10
2023-04-20T08:45:03.223Z,5.10
2023-04-20T08:47:32.282Z,5.33
2023-04-20T08:50:01.551Z,4.63
2023-04-20T08:52:29.306Z,4.73
2023-04-20T08:54:58.006Z,4.47
2023-04-20T08:57:26.135Z,4.70
2023-04-20T08:59:53.874Z,5.40
2023-04-20T09:02:21.860Z,4.47
2023-04-20T09:04:49.972Z,4.93
2023-04-20T09:07:22.675Z,5.70
2023-04-20T09:09:57.038Z,5.00
2023-04-20T09:12:25.533Z,5.23
2023-04-20T09:14:54.482Z,5.00
2023-04-20T09:17:33.179Z,4.80
2023-04-20T09:20:01.307Z,5.40
2023-04-20T09:22:34.818Z,5.20
2023-04-20T09:25:13.197Z,4.50
2023-04-20T09:27:41.029Z,5.77
2023-04-20T09:30:09.830Z,5.07
2023-04-20T09:32:37.571Z,4.27
2023-04-20T09:35:06.728Z,5.60
2023-04-20T09:37:35.812Z,4.77
2023-04-20T09:40:05.857Z,5.20
2023-04-20T09:42:37.301Z,5.40
2023-04-20T09:45:05.777Z,4.43
2023-04-20T09:47:36.671Z,5.57
2023-04-20T09:50:19.255Z,5.20
2023-04-20T09:52:53.244Z,4.60
2023-04-20T09:55:21.493Z,5.00
2023-04-20T09:57:51.318Z,5.00
2023-04-20T10:00:19.908Z,4.10
2023-04-20T10:02:48.998Z,4.93
2023-04-20T10:05:16.981Z,5.50
2023-04-20T10:07:45.532Z,6.07
2023-04-20T10:10:16.907Z,6.10
2023-04-20T10:12:51.493Z,5.20
2023-04-20T10:15:21.571Z,5.17
2023-04-20T10:17:49.624Z,5.77
2023-04-20T10:20:22.943Z,5.57
2023-04-20T10:22:52.527Z,6.80
2023-04-20T10:25:23.316Z,5.57
2023-04-20T10:27:56.076Z,5.50
2023-04-20T10:30:24.673Z,6.10
2023-04-20T10:33:04.273Z,5.20
2023-04-20T10:35:44.603Z,5.30
2023-04-20T10:38:13.882Z,5.40
2023-04-20T10:40:43.551Z,5.70
2023-04-20T10:43:21.406Z,6.10
2023-04-20T10:45:53.296Z,6.53
2023-04-20T10:48:21.697Z,6.27
2023-04-20T10:50:49.555Z,6.13
2023-04-20T10:53:21.410Z,7.37
2023-04-20T10:55:59.567Z,7.90
2023-04-20T10:58:27.625Z,7.33
2023-04-20T11:00:59.115Z,7.60
2023-04-20T11:03:28.829Z,6.73
2023-04-20T11:06:00.949Z,8.07
2023-04-20T11:08:39.746Z,8.10
2023-04-20T11:11:19.160Z,8.50
2023-04-20T11:13:47.016Z,7.73
2023-04-20T11:16:16.082Z,7.60
2023-04-20T11:18:52.505Z,7.90
2023-04-20T11:21:20.632Z,7.70
2023-04-20T11:23:48.785Z,7.83
2023-04-20T11:26:18.089Z,8.53
2023-04-20T11:28:55.532Z,7.57
2023-04-20T11:31:24.113Z,8.13
2023-04-20T11:33:52.060Z,6.33
2023-04-20T11:36:20.404Z,7.07
2023-04-20T11:38:48.292Z,7.53
2023-04-20T11:41:18.263Z,5.93
2023-04-20T11:43:46.441Z,5.40
2023-04-20T11:46:15.994Z,5.80
2023-04-20T11:48:43.996Z,5.53
2023-04-20T11:51:11.829Z,4.63
2023-04-20T11:53:39.986Z,5.60
2023-04-20T11:56:08.570Z,5.80
2023-04-20T11:58:38.287Z,5.10
2023-04-20T12:01:06.783Z,5.33
2023-04-20T12:03:34.707Z,5.27
2023-04-20T12:06:02.671Z,6.10
2023-04-20T12:08:31.479Z,5.20
2023-04-20T12:10:59.298Z,5.83
2023-04-20T12:13:27.286Z,6.17
2023-04-20T12:15:56.464Z,5.53
2023-04-20T12:18:24.236Z,6.30
2023-04-20T12:20:52.263Z,5.97
2023-04-20T12:23:20.286Z,6.87
2023-04-20T12:25:49.259Z,6.10
2023-04-20T12:28:17.033Z,6.83
2023-04-20T12:30:44.809Z,6.80
2023-04-20T12:33:13.883Z,7.10
2023-04-20T12:35:42.017Z,8.17
2023-04-20T12:38:09.730Z,7.87
2023-04-20T12:40:37.516Z,7.83
2023-04-20T12:43:14.148Z,7.40
2023-04-20T12:45:41.969Z,7.17
2023-04-20T12:48:09.748Z,7.57
2023-04-20T12:50:38.972Z,8.20
2023-04-20T12:53:06.835Z,8.60
2023-04-20T12:55:34.895Z,7.67
2023-04-20T12:58:02.688Z,8.03
2023-04-20T13:00:30.533Z,8.80
2023-04-20T13:02:58.404Z,8.23
2023-04-20T13:05:26.285Z,9.30
2023-04-20T13:07:55.445Z,9.30
2023-04-20T13:10:23.191Z,8.53
2023-04-20T13:12:52.397Z,9.77
2023-04-20T13:15:32.017Z,9.27
2023-04-20T13:18:07.134Z,8.43
2023-04-20T13:20:35.118Z,9.30
2023-04-20T13:23:05.040Z,8.57
2023-04-20T13:25:34.360Z,10.03
2023-04-20T13:28:03.812Z,10.10
2023-04-20T13:30:31.930Z,10.90
2023-04-20T13:32:59.844Z,9.53
2023-04-20T13:35:27.621Z,9.57
2023-04-20T13:37:55.419Z,9.43
2023-04-20T13:40:24.551Z,8.90
2023-04-20T13:42:52.255Z,9.37
2023-04-20T13:45:20.094Z,8.37
2023-04-20T13:47:47.990Z,8.33
2023-04-20T13:50:15.770Z,8.70
2023-04-20T13:52:43.543Z,9.90
2023-04-20T13:55:11.983Z,7.50
2023-04-20T13:57:41.053Z,8.43
2023-04-20T14:00:10.091Z,7.60
2023-04-20T14:02:37.941Z,7.97
2023-04-20T14:05:06.944Z,7.67
2023-04-20T14:07:34.667Z,7.50
2023-04-20T14:10:02.380Z,7.60
2023-04-20T14:12:30.149Z,7.27
2023-04-20T14:15:00.391Z,6.53
2023-04-20T14:17:28.162Z,8.40
2023-04-20T14:19:56.052Z,7.80
2023-04-20T14:22:23.775Z,6.60
2023-04-20T14:24:51.564Z,6.80
2023-04-20T14:27:19.288Z,7.10
2023-04-20T14:29:47.073Z,7.30
2023-04-20T14:32:16.108Z,8.43
2023-04-20T14:34:43.848Z,7.40
2023-04-20T14:37:11.695Z,7.37
2023-04-20T14:39:39.585Z,6.60
2023-04-20T14:42:07.575Z,6.23
2023-04-20T14:44:35.398Z,6.10
2023-04-20T14:47:03.237Z,6.33
2023-04-20T14:49:33.067Z,7.13
2023-04-20T14:52:00.909Z,6.37
2023-04-20T14:54:29.648Z,7.80
2023-04-20T14:56:57.402Z,6.83
2023-04-20T14:59:26.229Z,6.97
2023-04-20T15:02:02.303Z,6.30
2023-04-20T15:04:32.666Z,6.03
2023-04-20T15:07:00.575Z,6.10
2023-04-20T15:09:28.340Z,7.25
2023-04-20T15:11:56.787Z,6.27
2023-04-20T15:14:24.490Z,6.60
2023-04-20T15:16:53.508Z,6.37
2023-04-20T15:19:22.525Z,6.65
2023-04-20T15:21:51.747Z,7.17
2023-04-20T15:24:19.537Z,6.10
2023-04-20T15:26:47.419Z,7.00
2023-04-20T15:29:15.205Z,6.40
2023-04-20T15:31:45.299Z,7.60
2023-04-20T15:34:15.234Z,7.03
2023-04-20T15:36:43.533Z,6.40
2023-04-20T15:39:13.048Z,7.20
2023-04-20T15:41:40.984Z,7.70
2023-04-20T15:44:08.694Z,6.43
2023-04-20T15:46:37.588Z,6.50
2023-04-20T15:49:05.328Z,7.83
2023-04-20T15:51:33.061Z,7.30
2023-04-20T15:54:01.653Z,6.93
2023-04-20T15:56:30.929Z,8.40
2023-04-20T15:58:58.633Z,9.13
2023-04-20T16:01:26.410Z,7.63
2023-04-20T16:03:54.493Z,7.90
2023-04-20T16:06:22.672Z,8.00
2023-04-20T16:08:53.162Z,8.17
2023-04-20T16:11:21.716Z,9.13
2023-04-20T16:13:50.909Z,9.07
2023-04-20T16:16:18.797Z,7.73
2023-04-20T16:18:46.615Z,8.85
2023-04-20T16:21:14.550Z,9.80
2023-04-20T16:23:42.262Z,9.53
2023-04-20T16:26:10.192Z,10.50
2023-04-20T16:28:38.065Z,10.30
2023-04-20T16:31:07.271Z,8.73
2023-04-20T16:33:37.193Z,9.17
2023-04-20T16:36:05.503Z,8.67
2023-04-20T16:38:33.280Z,11.23
2023-04-20T16:41:01.064Z,10.77
2023-04-20T16:43:28.762Z,10.40
2023-04-20T16:45:56.540Z,10.47
2023-04-20T16:48:28.737Z,9.60
2023-04-20T16:50:56.450Z,11.17
2023-04-20T16:53:24.151Z,11.07
2023-04-20T16:55:51.953Z,10.60
2023-04-20T16:58:19.680Z,10.77
2023-04-20T17:00:48.101Z,11.80
2023-04-20T17:03:16.132Z,9.73
2023-04-20T17:05:46.542Z,9.47
2023-04-20T17:08:14.407Z,11.03
2023-04-20T17:10:42.220Z,9.47
2023-04-20T17:13:09.925Z,8.90
2023-04-20T17:15:37.668Z,9.80
2023-04-20T17:18:06.775Z,9.97
2023-04-20T17:20:34.632Z,10.00
2023-04-20T17:23:03.697Z,10.50
2023-04-20T17:25:31.600Z,10.87
2023-04-20T17:27:59.317Z,10.70
2023-04-20T17:30:27.056Z,11.37
2023-04-20T17:32:55.027Z,10.07
2023-04-20T17:35:23.010Z,11.50
2023-04-20T17:37:50.767Z,11.40
2023-04-20T17:40:20.060Z,11.67
2023-04-20T17:42:47.754Z,12.40
2023-04-20T17:45:15.498Z,12.03
2023-04-20T17:47:43.387Z,11.07
2023-04-20T17:50:13.266Z,13.17
2023-04-20T17:52:41.191Z,12.60
2023-04-20T17:55:09.802Z,13.13
2023-04-20T17:57:39.681Z,11.47
2023-04-20T18:00:11.471Z,14.47
2023-04-20T18:02:39.895Z,14.13
2023-04-20T18:05:08.666Z,13.27
2023-04-20T18:07:36.465Z,14.13
2023-04-20T18:10:04.779Z,13.23
2023-04-20T18:12:33.492Z,13.30
2023-04-20T18:15:02.580Z,14.27
2023-04-20T18:17:30.390Z,16.10
2023-04-20T18:19:58.110Z,15.20
2023-04-20T18:22:25.811Z,16.05
2023-04-20T18:24:54.113Z,15.70
2023-04-20T18:27:21.826Z,14.83
2023-04-20T18:29:49.529Z,15.80
2023-04-20T18:32:18.658Z,15.47
2023-04-20T18:34:46.331Z,13.00
2023-04-20T18:37:14.839Z,15.60
2023-04-20T18:39:42.568Z,14.70
2023-04-20T18:42:10.336Z,13.63
2023-04-20T18:44:38.223Z,13.90
2023-04-20T18:47:06.064Z,14.47
2023-04-20T18:49:35.423Z,15.13
2023-04-20T18:52:03.618Z,15.97
2023-04-20T18:54:31.351Z,15.97
2023-04-20T18:56:59.118Z,16.30
2023-04-20T18:59:26.831Z,14.90
2023-04-20T19:01:54.557Z,17.37
2023-04-20T19:04:22.521Z,14.47
2023-04-20T19:06:51.888Z,14.93
2023-04-20T19:09:19.640Z,14.27
2023-04-20T19:11:47.365Z,15.60
2023-04-20T19:14:15.074Z,14.27
2023-04-20T19:16:42.831Z,15.53
2023-04-20T19:19:11.676Z,14.70
2023-04-20T19:21:39.429Z,17.10
2023-04-20T19:24:08.793Z,15.50
2023-04-20T19:26:36.755Z,16.97
2023-04-20T19:29:04.441Z,15.70
2023-04-20T19:31:36.884Z,14.83
2023-04-20T19:34:04.941Z,14.93
2023-04-20T19:36:35.500Z,16.50
2023-04-20T19:39:03.528Z,14.30
2023-04-20T19:41:32.673Z,15.70
2023-04-20T19:44:00.829Z,16.57
2023-04-20T19:46:28.639Z,14.47
2023-04-20T19:48:56.652Z,16.23
2023-04-20T19:51:25.429Z,15.07
2023-04-20T19:53:53.137Z,16.50
2023-04-20T19:56:20.925Z,16.50
2023-04-20T19:58:50.020Z,17.20
2023-04-20T20:01:17.891Z,15.67
2023-04-20T20:03:45.846Z,16.27
2023-04-20T20:06:13.738Z,16.23
2023-04-20T20:08:41.448Z,16.00
2023-04-20T20:11:09.243Z,17.20
2023-04-20T20:13:36.973Z,16.50
2023-04-20T20:16:06.558Z,17.07
2023-04-20T20:18:34.399Z,15.97
2023-04-20T20:21:02.258Z,15.70
2023-04-20T20:23:29.980Z,17.15
2023-04-20T20:25:57.672Z,16.83
2023-04-20T20:28:25.565Z,16.50
2023-04-20T20:30:53.307Z,16.90
2023-04-20T20:33:22.406Z,15.70
2023-04-20T20:35:50.833Z,18.90
2023-04-20T20:38:20.873Z,16.23
2023-04-20T20:40:50.354Z,19.67
2023-04-20T20:43:18.890Z,16.13
2023-04-20T20:45:47.468Z,17.50
2023-04-20T20:48:15.354Z,16.47
2023-04-20T20:50:45.300Z,16.70
2023-04-20T20:53:13.093Z,16.27
2023-04-20T20:55:40.793Z,15.83
2023-04-20T20:58:08.503Z,17.47
2023-04-20T21:00:36.542Z,16.67
2023-04-20T21:03:04.536Z,15.77
2023-04-20T21:05:34.364Z,15.00
2023-04-20T21:08:04.803Z,15.87
2023-04-20T21:10:32.574Z,16.10
2023-04-20T21:13:00.288Z,14.77
2023-04-20T21:15:28.062Z,16.97
2023-04-20T21:17:55.873Z,16.70
2023-04-20T21:20:23.646Z,18.10
2023-04-20T21:22:51.417Z,16.90
2023-04-20T21:25:20.607Z,19.90
2023-04-20T21:27:48.503Z,15.83
2023-04-20T21:30:16.188Z,16.30
2023-04-20T21:32:43.944Z,16.47
2023-04-20T21:35:11.844Z,16.60
2023-04-20T21:37:39.744Z,16.17
2023-04-20T21:40:09.177Z,13.90
2023-04-20T21:42:38.262Z,15.77
2023-04-20T21:45:06.549Z,16.67
2023-04-20T21:47:34.449Z,17.00
2023-04-20T21:50:02.178Z,15.83
2023-04-20T21:52:30.093Z,16.57
2023-04-20T21:54:57.822Z,16.20
2023-04-20T21:57:25.591Z,15.97
2023-04-20T21:59:54.657Z,15.90
2023-04-20T22:02:22.408Z,15.83
2023-04-20T22:04:50.927Z,15.90
2023-04-20T22:07:18.891Z,16.40
2023-04-20T22:09:46.651Z,16.17
2023-04-20T22:12:14.365Z,16.63
2023-04-20T22:14:42.071Z,16.10
2023-04-20T22:17:11.750Z,20.07
2023-04-20T22:19:39.469Z,18.17
2023-04-20T22:22:07.202Z,16.43
2023-04-20T22:24:35.296Z,15.70
2023-04-20T22:27:03.463Z,17.47
2023-04-20T22:29:31.309Z,18.00
2023-04-20T22:31:59.007Z,17.73
2023-04-20T22:34:28.070Z,18.43
2023-04-20T22:36:55.781Z,18.03
2023-04-20T22:39:23.463Z,16.70
2023-04-20T22:41:51.171Z,16.37
2023-04-20T22:44:18.955Z,18.07
2023-04-20T22:46:46.918Z,17.40
2023-04-20T22:49:14.989Z,18.53
2023-04-20T22:51:44.022Z,18.93
2023-04-20T22:54:11.834Z,17.83
2023-04-20T22:56:39.655Z,18.10
2023-04-20T22:59:07.549Z,17.77
2023-04-20T23:01:35.357Z,18.23
2023-04-20T23:04:03.571Z,16.70
2023-04-20T23:06:31.542Z,17.67
2023-04-20T23:09:00.714Z,17.80
2023-04-20T23:11:29.777Z,18.80
2023-04-20T23:13:57.527Z,17.87
2023-04-20T23:16:28.067Z,17.67
2023-04-20T23:18:55.862Z,18.00
2023-04-20T23:21:23.578Z,18.13
2023-04-20T23:23:52.777Z,17.27
2023-04-20T23:26:21.842Z,16.60
2023-04-20T23:28:51.341Z,17.70
2023-04-20T23:31:19.184Z,16.47
2023-04-20T23:33:47.208Z,17.37
2023-04-20T23:36:15.255Z,19.13
2023-04-20T23:38:43.631Z,16.90
2023-04-20T23:41:11.624Z,17.37
2023-04-20T23:43:41.137Z,16.73
2023-04-20T23:46:09.704Z,15.93
2023-04-20T23:48:37.428Z,16.50
2023-04-20T23:51:05.648Z,15.70
2023-04-20T23:53:36.242Z,15.30
2023-04-20T23:56:04.417Z,15.87
2023-04-20T23:58:32.694Z,16.63
